sensor_id;sensor_type;location;lat;lon;timestamp;pressure;altitude;pressure_sealevel;temperature;humidity
23118;BME280;11728;50.624;6.014;2023-03-26T00:00:11;97545.00;;;8.72;83.53
23118;BME280;11728;50.624;6.014;2023-03-26T00:05:12;97543.34;;;8.70;83.48
23118;BME280;11728;50.624;6.014;2023-03-26T00:10:13;97544.41;;;8.63;83.26
23118;BME280;11728;50.624;6.014;2023-03-26T00:15:14;97547.94;;;8.62;83.32
23118;BME280;11728;50.624;6.014;2023-03-26T00:20:14;97544.13;;;8.73;83.09
23118;BME280;11728;50.624;6.014;2023-03-26T00:25:16;97544.75;;;8.81;82.54
23118;BME280;11728;50.624;6.014;2023-03-26T00:30:16;97531.72;;;8.77;82.35
23118;BME280;11728;50.624;6.014;2023-03-26T00:35:16;97529.09;;;8.77;82.29
23118;BME280;11728;50.624;6.014;2023-03-26T00:40:17;97522.69;;;8.87;82.24
23118;BME280;11728;50.624;6.014;2023-03-26T00:45:17;97516.19;;;8.98;81.56
23118;BME280;11728;50.624;6.014;2023-03-26T00:50:20;97510.66;;;9.07;81.23
23118;BME280;11728;50.624;6.014;2023-03-26T00:55:21;97511.34;;;9.14;80.80
23118;BME280;11728;50.624;6.014;2023-03-26T01:00:30;97513.00;;;9.18;80.68
23118;BME280;11728;50.624;6.014;2023-03-26T01:05:38;97504.91;;;9.23;80.42
23118;BME280;11728;50.624;6.014;2023-03-26T01:10:43;97499.63;;;9.23;80.00
23118;BME280;11728;50.624;6.014;2023-03-26T01:15:50;97487.25;;;9.25;80.01
23118;BME280;11728;50.624;6.014;2023-03-26T01:20:54;97482.91;;;9.24;80.29
23118;BME280;11728;50.624;6.014;2023-03-26T01:31:38;97455.66;;;9.25;80.66
23118;BME280;11728;50.624;6.014;2023-03-26T01:36:52;97449.66;;;9.20;80.83
23118;BME280;11728;50.624;6.014;2023-03-26T01:42:01;97448.81;;;9.20;80.96
23118;BME280;11728;50.624;6.014;2023-03-26T01:47:08;97445.94;;;9.27;80.75
23118;BME280;11728;50.624;6.014;2023-03-26T01:52:14;97429.22;;;9.28;80.41
23118;BME280;11728;50.624;6.014;2023-03-26T01:57:28;97417.88;;;9.26;80.65
23118;BME280;11728;50.624;6.014;2023-03-26T02:02:46;97402.19;;;9.23;80.67
23118;BME280;11728;50.624;6.014;2023-03-26T02:13:15;97373.50;;;9.15;81.70
23118;BME280;11728;50.624;6.014;2023-03-26T02:18:16;97362.69;;;9.22;81.33
23118;BME280;11728;50.624;6.014;2023-03-26T02:23:16;97358.31;;;9.22;81.77
23118;BME280;11728;50.624;6.014;2023-03-26T02:28:16;97344.59;;;9.13;82.13
23118;BME280;11728;50.624;6.014;2023-03-26T02:33:18;97344.59;;;9.13;82.55
23118;BME280;11728;50.624;6.014;2023-03-26T02:38:18;97342.19;;;9.06;83.01
23118;BME280;11728;50.624;6.014;2023-03-26T02:43:18;97331.41;;;9.13;83.00
23118;BME280;11728;50.624;6.014;2023-03-26T02:48:19;97318.28;;;9.12;83.31
23118;BME280;11728;50.624;6.014;2023-03-26T02:53:20;97312.22;;;9.10;83.61
23118;BME280;11728;50.624;6.014;2023-03-26T02:58:20;97293.78;;;9.10;83.64
23118;BME280;11728;50.624;6.014;2023-03-26T03:03:26;97283.88;;;9.18;83.45
23118;BME280;11728;50.624;6.014;2023-03-26T03:08:27;97275.03;;;9.18;83.33
23118;BME280;11728;50.624;6.014;2023-03-26T03:13:28;97267.88;;;9.22;83.45
23118;BME280;11728;50.624;6.014;2023-03-26T03:18:29;97258.31;;;9.19;83.42
23118;BME280;11728;50.624;6.014;2023-03-26T03:23:29;97249.63;;;9.18;83.32
23118;BME280;11728;50.624;6.014;2023-03-26T03:28:30;97239.94;;;9.18;83.35
23118;BME280;11728;50.624;6.014;2023-03-26T03:33:30;97236.25;;;9.23;83.28
23118;BME280;11728;50.624;6.014;2023-03-26T03:38:31;97239.50;;;9.30;83.70
23118;BME280;11728;50.624;6.014;2023-03-26T03:43:31;97236.63;;;9.13;85.12
23118;BME280;11728;50.624;6.014;2023-03-26T03:48:31;97223.34;;;8.90;87.55
23118;BME280;11728;50.624;6.014;2023-03-26T03:53:32;97203.25;;;8.62;89.48
23118;BME280;11728;50.624;6.014;2023-03-26T03:58:36;97191.47;;;8.47;91.17
23118;BME280;11728;50.624;6.014;2023-03-26T04:03:36;97180.34;;;8.38;91.77
23118;BME280;11728;50.624;6.014;2023-03-26T04:08:38;97168.31;;;8.31;92.69
23118;BME280;11728;50.624;6.014;2023-03-26T04:13:38;97150.81;;;8.30;93.30
23118;BME280;11728;50.624;6.014;2023-03-26T04:18:38;97143.81;;;8.31;93.22
23118;BME280;11728;50.624;6.014;2023-03-26T04:23:39;97128.66;;;8.37;93.23
23118;BME280;11728;50.624;6.014;2023-03-26T04:28:43;97121.50;;;8.42;93.11
23118;BME280;11728;50.624;6.014;2023-03-26T04:33:47;97104.00;;;8.41;93.35
23118;BME280;11728;50.624;6.014;2023-03-26T04:38:48;97086.41;;;8.43;94.02
23118;BME280;11728;50.624;6.014;2023-03-26T04:43:52;97092.66;;;8.39;94.65
23118;BME280;11728;50.624;6.014;2023-03-26T04:48:53;97080.31;;;8.41;94.80
23118;BME280;11728;50.624;6.014;2023-03-26T04:53:55;97074.91;;;8.45;94.59
23118;BME280;11728;50.624;6.014;2023-03-26T04:59:01;97069.38;;;8.53;94.57
23118;BME280;11728;50.624;6.014;2023-03-26T05:04:01;97058.75;;;8.56;94.53
23118;BME280;11728;50.624;6.014;2023-03-26T05:09:01;97055.00;;;8.63;93.82
23118;BME280;11728;50.624;6.014;2023-03-26T05:14:02;97051.47;;;8.64;93.93
23118;BME280;11728;50.624;6.014;2023-03-26T05:19:02;97040.03;;;8.65;93.94
23118;BME280;11728;50.624;6.014;2023-03-26T05:24:03;97028.59;;;8.66;94.11
23118;BME280;11728;50.624;6.014;2023-03-26T05:29:05;97023.53;;;8.60;94.49
23118;BME280;11728;50.624;6.014;2023-03-26T05:34:06;97014.84;;;8.58;94.72
23118;BME280;11728;50.624;6.014;2023-03-26T05:39:07;97003.69;;;8.51;95.40
23118;BME280;11728;50.624;6.014;2023-03-26T05:44:07;97004.97;;;8.40;95.79
23118;BME280;11728;50.624;6.014;2023-03-26T05:49:08;97003.91;;;8.20;97.21
23118;BME280;11728;50.624;6.014;2023-03-26T05:54:08;96999.13;;;8.06;98.28
23118;BME280;11728;50.624;6.014;2023-03-26T05:59:08;96997.69;;;7.96;98.83
23118;BME280;11728;50.624;6.014;2023-03-26T06:04:12;96989.50;;;7.79;99.32
23118;BME280;11728;50.624;6.014;2023-03-26T06:09:14;96986.25;;;7.71;99.83
23118;BME280;11728;50.624;6.014;2023-03-26T06:14:16;96967.09;;;7.69;99.95
23118;BME280;11728;50.624;6.014;2023-03-26T06:19:16;96958.31;;;7.69;99.85
23118;BME280;11728;50.624;6.014;2023-03-26T06:24:16;96946.25;;;7.63;100.00
23118;BME280;11728;50.624;6.014;2023-03-26T06:29:19;96949.91;;;7.60;100.00
23118;BME280;11728;50.624;6.014;2023-03-26T06:34:19;96926.56;;;7.51;100.00
23118;BME280;11728;50.624;6.014;2023-03-26T06:39:20;96911.91;;;7.44;100.00
23118;BME280;11728;50.624;6.014;2023-03-26T06:44:20;96911.16;;;7.40;100.00
23118;BME280;11728;50.624;6.014;2023-03-26T06:49:21;96906.03;;;7.37;100.00
23118;BME280;11728;50.624;6.014;2023-03-26T06:54:21;96892.09;;;7.34;100.00
23118;BME280;11728;50.624;6.014;2023-03-26T06:59:21;96889.69;;;7.28;99.95
23118;BME280;11728;50.624;6.014;2023-03-26T07:04:22;96881.19;;;7.20;99.78
23118;BME280;11728;50.624;6.014;2023-03-26T07:09:22;96870.69;;;7.20;99.91
23118;BME280;11728;50.624;6.014;2023-03-26T07:14:24;96860.88;;;7.26;99.80
23118;BME280;11728;50.624;6.014;2023-03-26T07:19:27;96850.91;;;7.36;99.68
23118;BME280;11728;50.624;6.014;2023-03-26T07:24:27;96843.75;;;7.41;99.73
23118;BME280;11728;50.624;6.014;2023-03-26T07:40:53;96827.50;;;7.56;100.00
23118;BME280;11728;50.624;6.014;2023-03-26T07:45:40;96811.53;;;7.60;100.00
23118;BME280;11728;50.624;6.014;2023-03-26T07:50:41;96788.56;;;7.66;99.94
23118;BME280;11728;50.624;6.014;2023-03-26T08:01:16;96769.03;;;7.73;99.79
23118;BME280;11728;50.624;6.014;2023-03-26T08:06:32;96753.84;;;7.81;100.00
23118;BME280;11728;50.624;6.014;2023-03-26T08:21:44;96745.00;;;8.07;95.47
23118;BME280;11728;50.624;6.014;2023-03-26T08:26:54;96736.88;;;7.90;96.85
23118;BME280;11728;50.624;6.014;2023-03-26T08:31:58;96716.75;;;7.90;97.62
23118;BME280;11728;50.624;6.014;2023-03-26T08:37:00;96715.47;;;8.00;97.51
23118;BME280;11728;50.624;6.014;2023-03-26T09:03:52;96690.41;;;8.99;92.59
23118;BME280;11728;50.624;6.014;2023-03-26T09:14:29;96678.75;;;9.44;93.12
23118;BME280;11728;50.624;6.014;2023-03-26T09:40:52;96690.59;;;9.54;90.27
23118;BME280;11728;50.624;6.014;2023-03-26T10:02:34;96721.78;;;8.19;94.17
23118;BME280;11728;50.624;6.014;2023-03-26T10:13:47;96698.34;;;8.35;93.57
23118;BME280;11728;50.624;6.014;2023-03-26T10:19:06;96696.16;;;8.01;93.83
23118;BME280;11728;50.624;6.014;2023-03-26T10:40:27;96691.22;;;7.71;96.49
23118;BME280;11728;50.624;6.014;2023-03-26T10:56:24;96689.91;;;8.04;97.87
23118;BME280;11728;50.624;6.014;2023-03-26T11:12:59;96704.03;;;8.24;100.00
23118;BME280;11728;50.624;6.014;2023-03-26T11:18:19;96712.47;;;8.32;100.00
23118;BME280;11728;50.624;6.014;2023-03-26T11:39:52;96740.09;;;8.65;100.00
23118;BME280;11728;50.624;6.014;2023-03-26T11:44:59;96741.75;;;8.67;100.00
23118;BME280;11728;50.624;6.014;2023-03-26T11:50:03;96751.16;;;8.73;100.00
23118;BME280;11728;50.624;6.014;2023-03-26T11:55:10;96759.06;;;8.73;100.00
23118;BME280;11728;50.624;6.014;2023-03-26T12:00:17;96751.75;;;8.79;100.00
23118;BME280;11728;50.624;6.014;2023-03-26T12:05:21;96770.66;;;8.89;100.00
23118;BME280;11728;50.624;6.014;2023-03-26T12:10:38;96761.28;;;9.24;100.00
23118;BME280;11728;50.624;6.014;2023-03-26T12:15:42;96761.53;;;9.58;100.00
23118;BME280;11728;50.624;6.014;2023-03-26T12:20:43;96766.00;;;9.56;100.00
23118;BME280;11728;50.624;6.014;2023-03-26T12:25:44;96772.91;;;9.59;100.00
23118;BME280;11728;50.624;6.014;2023-03-26T12:31:11;96774.72;;;9.38;100.00
23118;BME280;11728;50.624;6.014;2023-03-26T12:36:25;96779.78;;;9.63;99.77
23118;BME280;11728;50.624;6.014;2023-03-26T12:42:02;96778.47;;;9.73;99.00
23118;BME280;11728;50.624;6.014;2023-03-26T12:47:36;96777.84;;;9.86;99.11
23118;BME280;11728;50.624;6.014;2023-03-26T13:34:17;96790.50;;;9.78;97.92
23118;BME280;11728;50.624;6.014;2023-03-26T13:39:21;96783.63;;;10.14;96.41
23118;BME280;11728;50.624;6.014;2023-03-26T13:50:31;96792.31;;;10.36;94.88
23118;BME280;11728;50.624;6.014;2023-03-26T13:55:38;96778.81;;;10.78;94.73
23118;BME280;11728;50.624;6.014;2023-03-26T14:00:50;96784.63;;;11.03;92.91
23118;BME280;11728;50.624;6.014;2023-03-26T14:05:54;96786.53;;;11.35;91.37
23118;BME280;11728;50.624;6.014;2023-03-26T14:11:12;96786.88;;;11.46;90.12
23118;BME280;11728;50.624;6.014;2023-03-26T14:16:19;96797.69;;;11.06;89.72
23118;BME280;11728;50.624;6.014;2023-03-26T14:37:36;96832.09;;;10.11;90.65
23118;BME280;11728;50.624;6.014;2023-03-26T14:48:46;96843.47;;;9.92;91.51
23118;BME280;11728;50.624;6.014;2023-03-26T14:53:53;96846.00;;;9.75;92.71
23118;BME280;11728;50.624;6.014;2023-03-26T14:59:10;96849.56;;;9.54;93.32
23118;BME280;11728;50.624;6.014;2023-03-26T15:52:51;96929.38;;;8.91;100.00
23118;BME280;11728;50.624;6.014;2023-03-26T15:58:03;96943.47;;;8.90;100.00
23118;BME280;11728;50.624;6.014;2023-03-26T16:13:40;96976.38;;;9.01;100.00
23118;BME280;11728;50.624;6.014;2023-03-26T16:18:42;96996.00;;;8.93;100.00
23118;BME280;11728;50.624;6.014;2023-03-26T16:39:10;97027.78;;;8.64;100.00
23118;BME280;11728;50.624;6.014;2023-03-26T16:55:19;97061.84;;;8.67;100.00
23118;BME280;11728;50.624;6.014;2023-03-26T17:05:58;97084.63;;;8.68;100.00
23118;BME280;11728;50.624;6.014;2023-03-26T17:11:19;97090.72;;;8.70;100.00
23118;BME280;11728;50.624;6.014;2023-03-26T17:16:25;97108.44;;;8.65;100.00
23118;BME280;11728;50.624;6.014;2023-03-26T17:21:43;97126.13;;;8.60;100.00
23118;BME280;11728;50.624;6.014;2023-03-26T17:32:06;97150.03;;;8.54;100.00
23118;BME280;11728;50.624;6.014;2023-03-26T17:37:44;97159.91;;;8.47;100.00
23118;BME280;11728;50.624;6.014;2023-03-26T17:48:41;97179.44;;;8.39;100.00
23118;BME280;11728;50.624;6.014;2023-03-26T17:53:46;97195.38;;;8.35;100.00
23118;BME280;11728;50.624;6.014;2023-03-26T17:58:49;97210.19;;;8.37;100.00
23118;BME280;11728;50.624;6.014;2023-03-26T18:03:57;97216.41;;;8.35;100.00
23118;BME280;11728;50.624;6.014;2023-03-26T18:09:12;97234.97;;;8.30;100.00
23118;BME280;11728;50.624;6.014;2023-03-26T18:20:01;97263.22;;;7.93;100.00
23118;BME280;11728;50.624;6.014;2023-03-26T18:25:05;97272.25;;;7.85;100.00
23118;BME280;11728;50.624;6.014;2023-03-26T18:30:20;97288.91;;;7.84;100.00
23118;BME280;11728;50.624;6.014;2023-03-26T18:35:21;97293.50;;;7.77;100.00
23118;BME280;11728;50.624;6.014;2023-03-26T18:40:30;97308.59;;;7.69;100.00
23118;BME280;11728;50.624;6.014;2023-03-26T18:45:38;97324.59;;;7.61;100.00
23118;BME280;11728;50.624;6.014;2023-03-26T18:50:40;97338.81;;;7.54;100.00
23118;BME280;11728;50.624;6.014;2023-03-26T18:55:42;97352.25;;;7.42;100.00
23118;BME280;11728;50.624;6.014;2023-03-26T19:00:43;97359.44;;;7.34;100.00
23118;BME280;11728;50.624;6.014;2023-03-26T19:05:44;97378.84;;;7.28;100.00
23118;BME280;11728;50.624;6.014;2023-03-26T19:10:44;97379.13;;;7.18;100.00
23118;BME280;11728;50.624;6.014;2023-03-26T19:15:50;97388.03;;;7.11;100.00
23118;BME280;11728;50.624;6.014;2023-03-26T19:20:56;97406.53;;;7.05;100.00
23118;BME280;11728;50.624;6.014;2023-03-26T19:26:00;97414.41;;;7.06;100.00
23118;BME280;11728;50.624;6.014;2023-03-26T19:46:21;97452.34;;;6.92;100.00
23118;BME280;11728;50.624;6.014;2023-03-26T19:51:35;97470.75;;;6.90;100.00
23118;BME280;11728;50.624;6.014;2023-03-26T19:56:36;97475.06;;;6.93;100.00
23118;BME280;11728;50.624;6.014;2023-03-26T20:01:36;97482.97;;;6.90;100.00
23118;BME280;11728;50.624;6.014;2023-03-26T20:06:37;97497.97;;;6.85;100.00
23118;BME280;11728;50.624;6.014;2023-03-26T20:11:39;97511.28;;;6.76;100.00
23118;BME280;11728;50.624;6.014;2023-03-26T20:16:40;97525.94;;;6.86;100.00
23118;BME280;11728;50.624;6.014;2023-03-26T20:21:41;97529.19;;;6.97;100.00
23118;BME280;11728;50.624;6.014;2023-03-26T20:26:43;97540.00;;;6.84;100.00
23118;BME280;11728;50.624;6.014;2023-03-26T20:31:44;97551.41;;;6.80;100.00
23118;BME280;11728;50.624;6.014;2023-03-26T20:36:45;97559.59;;;6.66;100.00
23118;BME280;11728;50.624;6.014;2023-03-26T20:41:47;97576.34;;;6.58;100.00
23118;BME280;11728;50.624;6.014;2023-03-26T20:46:49;97580.94;;;6.47;99.81
23118;BME280;11728;50.624;6.014;2023-03-26T20:51:49;97592.44;;;6.40;99.68
23118;BME280;11728;50.624;6.014;2023-03-26T20:56:51;97602.03;;;6.39;99.32
23118;BME280;11728;50.624;6.014;2023-03-26T21:01:54;97610.81;;;6.37;98.68
23118;BME280;11728;50.624;6.014;2023-03-26T21:06:55;97624.13;;;6.26;98.22
23118;BME280;11728;50.624;6.014;2023-03-26T21:12:00;97631.19;;;6.20;97.94
23118;BME280;11728;50.624;6.014;2023-03-26T21:17:01;97636.63;;;6.11;97.01
23118;BME280;11728;50.624;6.014;2023-03-26T21:22:09;97647.09;;;6.11;96.66
23118;BME280;11728;50.624;6.014;2023-03-26T21:27:22;97665.41;;;6.12;96.39
23118;BME280;11728;50.624;6.014;2023-03-26T21:32:25;97671.38;;;6.22;96.45
23118;BME280;11728;50.624;6.014;2023-03-26T21:37:26;97687.16;;;6.19;96.16
23118;BME280;11728;50.624;6.014;2023-03-26T21:42:27;97697.63;;;6.19;95.99
23118;BME280;11728;50.624;6.014;2023-03-26T21:47:28;97710.75;;;6.17;95.88
23118;BME280;11728;50.624;6.014;2023-03-26T21:52:29;97728.34;;;6.09;95.65
23118;BME280;11728;50.624;6.014;2023-03-26T22:03:22;97751.44;;;5.81;93.50
23118;BME280;11728;50.624;6.014;2023-03-26T22:08:38;97767.31;;;5.66;92.28
23118;BME280;11728;50.624;6.014;2023-03-26T22:13:39;97770.00;;;5.61;91.73
23118;BME280;11728;50.624;6.014;2023-03-26T22:18:39;97786.59;;;5.59;90.67
23118;BME280;11728;50.624;6.014;2023-03-26T22:23:42;97796.22;;;5.57;90.20
23118;BME280;11728;50.624;6.014;2023-03-26T22:28:49;97805.88;;;5.55;89.58
23118;BME280;11728;50.624;6.014;2023-03-26T22:33:50;97812.84;;;5.54;89.41
23118;BME280;11728;50.624;6.014;2023-03-26T22:38:52;97819.91;;;5.48;88.43
23118;BME280;11728;50.624;6.014;2023-03-26T22:43:52;97827.84;;;5.39;88.02
23118;BME280;11728;50.624;6.014;2023-03-26T22:48:53;97844.47;;;5.35;87.58
23118;BME280;11728;50.624;6.014;2023-03-26T22:53:56;97855.00;;;5.29;86.68
23118;BME280;11728;50.624;6.014;2023-03-26T22:58:56;97855.00;;;5.28;86.41
23118;BME280;11728;50.624;6.014;2023-03-26T23:03:56;97868.19;;;5.19;85.67
23118;BME280;11728;50.624;6.014;2023-03-26T23:08:57;97874.31;;;5.13;85.10
23118;BME280;11728;50.624;6.014;2023-03-26T23:13:58;97890.06;;;5.07;84.92
23118;BME280;11728;50.624;6.014;2023-03-26T23:18:58;97903.19;;;5.06;84.98
23118;BME280;11728;50.624;6.014;2023-03-26T23:23:58;97920.59;;;5.08;84.65
23118;BME280;11728;50.624;6.014;2023-03-26T23:29:00;97928.44;;;5.11;84.75
23118;BME280;11728;50.624;6.014;2023-03-26T23:34:00;97939.72;;;5.19;84.78
23118;BME280;11728;50.624;6.014;2023-03-26T23:39:00;97944.16;;;5.07;85.00
23118;BME280;11728;50.624;6.014;2023-03-26T23:44:01;97963.38;;;4.98;85.30
23118;BME280;11728;50.624;6.014;2023-03-26T23:49:01;97981.75;;;4.91;85.48
23118;BME280;11728;50.624;6.014;2023-03-26T23:54:02;97983.50;;;4.90;85.45
23118;BME280;11728;50.624;6.014;2023-03-26T23:59:04;97991.38;;;4.84;85.35
